OPLA/LHE METAR and TAF weather

Enter ICAO airport designator
Station Type Date Time Source
OPLA METAR 2019/12/06 08:55 UTC NOAA

OPLA 060855Z 34005KT 4000 HZ NSC 21/06 Q1021 NOSIG RMK QFE995 RMK A30.15


Station Type Date Time Source
OPLA Decoded METAR 2019/12/06 08:55 UTC NOAA

Lahore Airport, Pakistan (OPLA) 31-31N 074-24E 217M
Dec 06, 2019 - 03:55 AM EST / 2019.12.06 0855 UTC
Wind: from the NNW (340 degrees) at 6 MPH (5 KT):0
Visibility: 2 mile(s):0
Weather: haze
Temperature: 69 F (21 C)
Dew Point: 42 F (6 C)
Relative Humidity: 37%
Pressure (altimeter): 30.15 in. Hg (1021 hPa)
ob: OPLA 060855Z 34005KT 4000 HZ NSC 21/06 Q1021 NOSIG RMK QFE995 RMK A30.15
cycle: 9

Station Type Date Time Source
OPLA TAF 2019/12/06 06:10 UTC NOAA

TAF OPLA 060345Z 0606/0712 VRB02KT 2000 FU NSC TX21/0710Z TN06/0700Z
TEMPO 0620/0624 00000KT 1500 BR
TEMPO 0700/0705 0500 FG

Example: see airport list